createdAt,value
2022-10-19T00:00:21.242Z,69.86
2022-10-19T00:02:51.825Z,69.86
2022-10-19T00:05:22.611Z,69.78
2022-10-19T00:07:54.871Z,69.85
2022-10-19T00:10:25.668Z,70.35
2022-10-19T00:12:56.299Z,70.42
2022-10-19T00:15:29.503Z,70.51
2022-10-19T00:18:00.049Z,70.67
2022-10-19T00:20:30.626Z,70.81
2022-10-19T00:23:01.220Z,70.40
2022-10-19T00:25:32.242Z,70.14
2022-10-19T00:28:03.533Z,69.92
2022-10-19T00:30:40.028Z,69.71
2022-10-19T00:33:10.619Z,69.56
2022-10-19T00:35:44.129Z,70.03
2022-10-19T00:38:14.722Z,70.54
2022-10-19T00:40:45.331Z,70.03
2022-10-19T00:43:18.329Z,69.73
2022-10-19T00:45:51.932Z,70.39
2022-10-19T00:48:26.865Z,71.07
2022-10-19T00:51:00.361Z,70.65
2022-10-19T00:53:33.647Z,71.06
2022-10-19T00:56:08.538Z,71.13
2022-10-19T00:58:39.559Z,71.50
2022-10-19T01:01:16.234Z,71.85
2022-10-19T01:03:47.469Z,71.75
2022-10-19T01:06:20.997Z,71.76
2022-10-19T01:08:51.557Z,71.70
2022-10-19T01:11:34.530Z,71.62
2022-10-19T01:14:21.271Z,71.57
2022-10-19T01:17:05.749Z,71.75
2022-10-19T01:20:03.482Z,72.11
2022-10-19T01:22:49.043Z,71.64
2022-10-19T01:25:26.033Z,71.78
2022-10-19T01:28:12.797Z,71.86
2022-10-19T01:30:56.105Z,71.88
2022-10-19T01:33:47.283Z,72.49
2022-10-19T01:36:26.503Z,72.46
2022-10-19T01:39:05.444Z,72.44
2022-10-19T01:41:46.558Z,72.06
2022-10-19T01:44:22.102Z,72.79
2022-10-19T01:46:58.024Z,73.23
2022-10-19T01:49:34.318Z,72.45
2022-10-19T01:52:08.303Z,72.97
2022-10-19T01:54:44.659Z,72.90
2022-10-19T01:57:20.253Z,72.94
2022-10-19T01:59:51.640Z,73.17
2022-10-19T02:02:27.178Z,72.66
2022-10-19T02:05:00.395Z,72.77
2022-10-19T02:07:31.759Z,72.02
2022-10-19T02:10:02.457Z,72.52
2022-10-19T02:12:36.090Z,72.35
2022-10-19T02:15:14.788Z,72.98
2022-10-19T02:17:52.191Z,72.88
2022-10-19T02:20:24.216Z,72.85
2022-10-19T02:22:54.796Z,73.28
2022-10-19T02:25:26.242Z,73.21
2022-10-19T02:27:56.899Z,72.96
2022-10-19T02:30:27.721Z,72.64
2022-10-19T02:33:00.871Z,72.99
2022-10-19T02:35:31.625Z,72.77
2022-10-19T02:38:05.289Z,72.75
2022-10-19T02:40:39.756Z,72.54
2022-10-19T02:43:19.336Z,72.99
2022-10-19T02:45:57.954Z,72.29
2022-10-19T02:48:35.099Z,72.74
2022-10-19T02:51:05.777Z,72.78
2022-10-19T02:53:36.315Z,72.64
2022-10-19T02:56:07.227Z,72.81
2022-10-19T02:58:37.773Z,72.82
2022-10-19T03:01:08.570Z,72.68
2022-10-19T03:03:41.807Z,72.32
2022-10-19T03:06:12.597Z,72.38
2022-10-19T03:08:43.188Z,72.28
2022-10-19T03:11:13.737Z,72.32
2022-10-19T03:13:45.285Z,72.17
2022-10-19T03:16:16.990Z,71.83
2022-10-19T03:18:51.144Z,71.14
2022-10-19T03:21:22.066Z,71.23
2022-10-19T03:23:52.623Z,71.85
2022-10-19T03:26:23.364Z,72.23
2022-10-19T03:28:53.973Z,71.93
2022-10-19T03:31:24.723Z,72.28
2022-10-19T03:33:57.895Z,71.81
2022-10-19T03:36:30.225Z,71.69
2022-10-19T03:39:02.679Z,71.67
2022-10-19T03:41:35.708Z,72.44
2022-10-19T03:44:06.914Z,72.53
2022-10-19T03:46:37.961Z,73.03
2022-10-19T03:49:12.057Z,72.85
2022-10-19T03:51:42.567Z,73.11
2022-10-19T03:54:16.796Z,73.33
2022-10-19T03:56:47.566Z,73.51
2022-10-19T03:59:18.533Z,73.55
2022-10-19T04:01:49.673Z,73.90
2022-10-19T04:04:23.486Z,73.75
2022-10-19T04:06:54.312Z,73.20
2022-10-19T04:09:26.252Z,73.61
2022-10-19T04:11:57.149Z,73.88
2022-10-19T04:14:33.206Z,73.85
2022-10-19T04:17:10.473Z,73.79
2022-10-19T04:19:43.907Z,74.06
2022-10-19T04:22:15.024Z,73.88
2022-10-19T04:24:45.731Z,73.88
2022-10-19T04:27:16.449Z,74.19
2022-10-19T04:29:47.213Z,73.86
2022-10-19T04:32:17.854Z,74.18
2022-10-19T04:34:51.000Z,74.24
2022-10-19T04:37:21.507Z,74.12
2022-10-19T04:39:52.005Z,74.01
2022-10-19T04:42:22.526Z,74.02
2022-10-19T04:44:53.010Z,74.00
2022-10-19T04:47:23.514Z,74.11
2022-10-19T04:49:56.635Z,73.94
2022-10-19T04:52:27.263Z,74.10
2022-10-19T04:54:57.794Z,73.54
2022-10-19T04:57:28.263Z,73.55
2022-10-19T04:59:58.778Z,73.13
2022-10-19T05:02:29.269Z,72.78
2022-10-19T05:05:02.475Z,73.00
2022-10-19T05:07:33.758Z,72.66
2022-10-19T05:10:04.819Z,72.89
2022-10-19T05:12:35.613Z,73.14
2022-10-19T05:15:06.645Z,73.13
2022-10-19T05:17:37.281Z,73.19
2022-10-19T05:20:12.191Z,74.20
2022-10-19T05:22:43.058Z,74.44
2022-10-19T05:25:13.587Z,74.31
2022-10-19T05:27:44.092Z,74.57
2022-10-19T05:30:15.088Z,74.65
2022-10-19T05:32:45.602Z,75.35
2022-10-19T05:35:22.361Z,75.22
2022-10-19T05:37:57.386Z,75.11
2022-10-19T05:40:27.904Z,74.54
2022-10-19T05:42:58.419Z,74.26
2022-10-19T05:45:28.928Z,74.05
2022-10-19T05:47:59.486Z,73.96
2022-10-19T05:50:32.625Z,73.57
2022-10-19T05:53:03.130Z,73.49
2022-10-19T05:55:38.550Z,73.27
2022-10-19T05:58:09.068Z,72.40
2022-10-19T06:00:39.651Z,72.41
2022-10-19T06:03:10.154Z,72.02
2022-10-19T06:05:43.551Z,71.69
2022-10-19T06:08:14.149Z,71.66
2022-10-19T06:10:44.735Z,70.32
2022-10-19T06:13:15.886Z,70.53
2022-10-19T06:15:46.404Z,69.26
2022-10-19T06:18:16.989Z,68.75
2022-10-19T06:20:50.171Z,68.67
2022-10-19T06:23:20.967Z,68.36
2022-10-19T06:25:51.437Z,67.45
2022-10-19T06:28:21.971Z,66.32
2022-10-19T06:30:52.559Z,65.39
2022-10-19T06:33:23.086Z,64.48
2022-10-19T06:35:56.582Z,63.38
2022-10-19T06:38:27.155Z,62.72
2022-10-19T06:41:01.856Z,61.76
2022-10-19T06:43:32.384Z,60.46
2022-10-19T06:46:06.555Z,59.83
2022-10-19T06:48:37.223Z,58.63
2022-10-19T06:51:12.108Z,58.22
2022-10-19T06:53:42.632Z,57.18
2022-10-19T06:56:13.777Z,55.79
2022-10-19T06:58:44.388Z,54.53
2022-10-19T07:01:15.031Z,53.24
2022-10-19T07:03:46.034Z,52.67
2022-10-19T07:06:19.178Z,51.43
2022-10-19T07:08:49.733Z,50.42
2022-10-19T07:11:22.857Z,49.77
2022-10-19T07:13:54.922Z,48.90
2022-10-19T07:16:25.544Z,48.01
2022-10-19T07:18:56.926Z,46.80
2022-10-19T07:21:30.164Z,45.87
2022-10-19T07:24:01.059Z,45.46
2022-10-19T07:26:33.419Z,44.43
2022-10-19T07:29:04.615Z,42.57
2022-10-19T07:31:36.094Z,42.41
2022-10-19T07:34:08.512Z,42.09
2022-10-19T07:36:45.190Z,41.53
2022-10-19T07:39:17.159Z,41.90
2022-10-19T07:41:48.108Z,41.39
2022-10-19T07:44:19.280Z,41.22
2022-10-19T07:46:50.534Z,41.23
2022-10-19T07:49:21.053Z,41.53
2022-10-19T07:51:56.314Z,41.46
2022-10-19T07:54:27.686Z,41.77
2022-10-19T07:56:58.265Z,41.21
2022-10-19T07:59:28.880Z,40.52
2022-10-19T08:02:02.603Z,40.10
2022-10-19T08:07:26.465Z,39.81
2022-10-19T08:09:57.092Z,39.68
2022-10-19T08:12:27.890Z,39.34
2022-10-19T08:14:58.532Z,39.64
2022-10-19T08:17:29.104Z,39.07
2022-10-19T08:19:59.621Z,39.31
2022-10-19T08:22:33.094Z,39.19
2022-10-19T08:25:03.937Z,38.67
2022-10-19T08:27:37.571Z,38.64
2022-10-19T08:30:08.871Z,38.39
2022-10-19T08:32:39.436Z,38.59
2022-10-19T08:35:11.048Z,38.87
2022-10-19T08:37:45.435Z,38.05
2022-10-19T08:40:23.931Z,37.41
2022-10-19T08:42:59.379Z,35.49
2022-10-19T08:45:51.130Z,36.54
2022-10-19T08:48:33.180Z,35.48
2022-10-19T08:51:04.461Z,35.87
2022-10-19T08:53:43.054Z,34.73
2022-10-19T08:56:50.040Z,35.19
2022-10-19T08:59:24.718Z,35.59
2022-10-19T09:01:58.594Z,35.21
2022-10-19T09:04:35.865Z,35.62
2022-10-19T09:07:23.414Z,35.79
2022-10-19T09:10:00.192Z,35.65
2022-10-19T09:12:46.484Z,34.93
2022-10-19T09:15:21.373Z,35.76
2022-10-19T09:17:51.901Z,35.57
2022-10-19T09:20:25.696Z,35.80
2022-10-19T09:23:06.807Z,35.83
2022-10-19T09:25:44.149Z,36.28
2022-10-19T09:28:36.477Z,35.84
2022-10-19T09:31:13.999Z,35.81
2022-10-19T09:33:47.255Z,36.18
2022-10-19T09:36:22.916Z,36.13
2022-10-19T09:38:58.237Z,36.09
2022-10-19T09:41:31.909Z,35.96
2022-10-19T09:44:03.123Z,35.88
2022-10-19T09:46:42.405Z,35.79
2022-10-19T09:49:13.078Z,35.93
2022-10-19T09:51:51.911Z,35.60
2022-10-19T09:54:38.166Z,35.11
2022-10-19T09:57:24.396Z,33.78
2022-10-19T09:59:55.541Z,35.29
2022-10-19T10:02:33.229Z,35.48
2022-10-19T10:05:09.400Z,35.03
2022-10-19T10:07:41.877Z,34.67
2022-10-19T10:10:14.759Z,34.47
2022-10-19T10:12:49.077Z,34.13
2022-10-19T10:15:24.518Z,33.18
2022-10-19T10:17:56.156Z,33.38
2022-10-19T10:20:32.458Z,33.20
2022-10-19T10:23:05.449Z,32.58
2022-10-19T10:25:38.149Z,32.96
2022-10-19T10:28:22.762Z,31.20
2022-10-19T10:30:58.549Z,32.16
2022-10-19T10:33:44.042Z,32.57
2022-10-19T10:36:16.295Z,32.41
2022-10-19T10:38:50.510Z,31.96
2022-10-19T10:41:25.015Z,32.30
2022-10-19T10:44:04.585Z,32.16
2022-10-19T10:46:38.449Z,32.07
2022-10-19T10:49:11.499Z,31.36
2022-10-19T10:51:50.574Z,31.03
2022-10-19T10:54:25.575Z,31.02
2022-10-19T10:57:09.504Z,30.89
2022-10-19T10:59:51.300Z,30.80
2022-10-19T11:02:32.898Z,30.36
2022-10-19T11:05:07.766Z,29.97
2022-10-19T11:07:39.526Z,30.26
2022-10-19T11:10:19.803Z,30.30
2022-10-19T11:12:57.086Z,29.66
2022-10-19T11:15:37.780Z,28.75
2022-10-19T11:18:18.843Z,29.30
2022-10-19T11:20:58.344Z,29.29
2022-10-19T11:23:40.817Z,27.75
2022-10-19T11:26:22.960Z,27.46
2022-10-19T11:29:05.786Z,27.55
2022-10-19T11:31:47.865Z,27.70
2022-10-19T11:34:37.334Z,27.55
2022-10-19T11:37:22.452Z,27.54
2022-10-19T11:40:04.109Z,27.98
2022-10-19T11:42:48.352Z,28.17
2022-10-19T11:45:35.381Z,27.54
2022-10-19T11:48:23.925Z,27.66
2022-10-19T11:51:16.925Z,28.37
2022-10-19T11:53:58.825Z,27.87
2022-10-19T11:56:58.181Z,26.72
2022-10-19T11:59:38.629Z,27.22
2022-10-19T12:02:31.177Z,26.29
2022-10-19T12:05:08.930Z,26.02
2022-10-19T12:07:56.647Z,25.29
2022-10-19T12:10:36.157Z,26.47
2022-10-19T12:13:09.153Z,26.12
2022-10-19T12:15:43.110Z,25.48
2022-10-19T12:18:19.409Z,25.10
2022-10-19T12:20:56.656Z,25.49
2022-10-19T12:23:33.338Z,25.55
2022-10-19T12:26:06.741Z,25.55
2022-10-19T12:28:39.923Z,25.22
2022-10-19T12:31:13.684Z,25.71
2022-10-19T12:33:52.688Z,25.88
2022-10-19T12:36:40.099Z,25.72
2022-10-19T12:39:17.249Z,26.02
2022-10-19T12:41:53.441Z,26.54
2022-10-19T12:44:38.166Z,26.78
2022-10-19T12:47:18.766Z,26.85
2022-10-19T12:49:51.905Z,26.90
2022-10-19T12:52:41.629Z,26.58
2022-10-19T12:55:34.893Z,26.75
2022-10-19T12:58:22.820Z,26.85
2022-10-19T13:01:02.692Z,27.05
2022-10-19T13:03:36.775Z,26.65
2022-10-19T13:06:14.476Z,26.42
2022-10-19T13:08:51.768Z,26.98
2022-10-19T13:11:23.561Z,26.96
2022-10-19T13:14:00.599Z,26.96
2022-10-19T13:17:09.743Z,27.14
2022-10-19T13:19:40.381Z,27.37
2022-10-19T13:22:30.431Z,26.68
2022-10-19T13:25:28.152Z,26.57
2022-10-19T13:28:03.247Z,27.22
2022-10-19T13:31:06.085Z,27.13
2022-10-19T13:33:49.661Z,27.16
2022-10-19T13:36:21.321Z,27.03
2022-10-19T13:39:08.777Z,27.24
2022-10-19T13:41:57.322Z,27.56
2022-10-19T13:44:31.212Z,27.44
2022-10-19T13:47:20.658Z,27.44
2022-10-19T13:50:06.028Z,26.88
2022-10-19T13:52:59.581Z,26.73
2022-10-19T13:55:53.553Z,26.76
2022-10-19T13:58:42.405Z,26.41
2022-10-19T14:01:25.905Z,26.55
2022-10-19T14:04:09.832Z,26.83
2022-10-19T14:06:46.844Z,25.72
2022-10-19T14:09:43.668Z,26.46
2022-10-19T14:12:22.764Z,28.07
2022-10-19T14:14:56.396Z,28.55
2022-10-19T14:17:30.358Z,28.52
2022-10-19T14:20:02.254Z,29.30
2022-10-19T14:22:36.366Z,29.77
2022-10-19T14:25:10.351Z,29.60
2022-10-19T14:27:41.863Z,29.07
2022-10-19T14:30:25.628Z,29.30
2022-10-19T14:33:01.002Z,29.68
2022-10-19T14:35:36.586Z,29.89
2022-10-19T14:38:09.506Z,30.15
2022-10-19T14:40:43.236Z,30.08
2022-10-19T14:43:23.842Z,30.30
2022-10-19T14:46:13.567Z,30.37
2022-10-19T14:48:45.980Z,30.50
2022-10-19T14:51:33.963Z,30.25
2022-10-19T14:54:08.368Z,30.64
2022-10-19T14:56:46.190Z,30.53
2022-10-19T14:59:27.926Z,30.87
2022-10-19T15:02:04.188Z,31.32
2022-10-19T15:04:37.734Z,31.41
2022-10-19T15:07:19.911Z,31.89
2022-10-19T15:09:56.593Z,31.93
2022-10-19T15:12:33.370Z,31.87
2022-10-19T15:15:04.283Z,32.15
2022-10-19T15:17:39.103Z,32.45
2022-10-19T15:20:26.366Z,32.48
2022-10-19T15:22:57.372Z,32.81
2022-10-19T15:25:37.228Z,33.05
2022-10-19T15:28:23.510Z,33.31
2022-10-19T15:31:04.999Z,33.58
2022-10-19T15:33:43.386Z,34.03
2022-10-19T15:36:17.596Z,33.78
2022-10-19T15:38:50.073Z,34.07
2022-10-19T15:41:23.942Z,34.60
2022-10-19T15:43:56.942Z,34.95
2022-10-19T15:46:31.887Z,34.83
2022-10-19T15:49:27.632Z,35.16
2022-10-19T15:51:58.127Z,35.00
2022-10-19T15:54:28.757Z,35.36
2022-10-19T15:56:59.567Z,35.68
2022-10-19T15:59:30.203Z,35.83
2022-10-19T16:02:00.817Z,36.21
2022-10-19T16:04:34.249Z,36.47
2022-10-19T16:07:05.328Z,36.63
2022-10-19T16:09:36.187Z,36.85
2022-10-19T16:12:06.933Z,37.11
2022-10-19T16:14:37.784Z,36.99
2022-10-19T16:17:08.496Z,37.28
2022-10-19T16:19:41.846Z,37.46
2022-10-19T16:22:12.819Z,37.21
2022-10-19T16:24:43.965Z,37.95
2022-10-19T16:27:16.602Z,38.37
2022-10-19T16:29:47.608Z,41.77
2022-10-19T16:32:18.267Z,40.81
2022-10-19T16:34:51.589Z,42.51
2022-10-19T16:37:22.223Z,42.77
2022-10-19T16:39:52.793Z,42.83
2022-10-19T16:42:25.667Z,43.08
2022-10-19T16:44:58.853Z,42.82
2022-10-19T16:47:29.530Z,44.29
2022-10-19T16:50:04.586Z,44.49
2022-10-19T16:52:35.736Z,44.96
2022-10-19T16:55:06.612Z,45.56
2022-10-19T16:57:37.337Z,45.04
2022-10-19T17:00:10.381Z,46.25
2022-10-19T17:02:44.346Z,46.60
2022-10-19T17:05:19.766Z,46.44
2022-10-19T17:07:50.318Z,47.05
2022-10-19T17:10:21.915Z,47.60
2022-10-19T17:12:52.544Z,47.24
2022-10-19T17:15:42.019Z,48.13
2022-10-19T17:18:13.394Z,48.31
2022-10-19T17:20:46.540Z,47.89
2022-10-19T17:23:17.098Z,48.35
2022-10-19T17:25:50.905Z,49.10
2022-10-19T17:28:24.131Z,48.33
2022-10-19T17:30:58.030Z,48.76
2022-10-19T17:33:30.286Z,50.27
2022-10-19T17:36:10.400Z,49.46
2022-10-19T17:38:41.483Z,48.54
2022-10-19T17:41:14.600Z,50.24
2022-10-19T17:43:47.080Z,54.26
2022-10-19T17:46:20.069Z,55.11
2022-10-19T17:48:50.751Z,55.44
2022-10-19T17:51:27.295Z,56.17
2022-10-19T17:53:59.683Z,55.94
2022-10-19T17:56:30.909Z,56.40
2022-10-19T17:59:03.243Z,56.65
2022-10-19T18:01:34.639Z,55.97
2022-10-19T18:04:05.138Z,53.93
2022-10-19T18:06:39.932Z,56.76
2022-10-19T18:09:13.812Z,57.68
2022-10-19T18:11:47.398Z,57.86
2022-10-19T18:14:18.224Z,58.27
2022-10-19T18:16:50.531Z,56.42
2022-10-19T18:19:21.344Z,55.94
2022-10-19T18:21:54.551Z,59.58
2022-10-19T18:24:25.457Z,58.42
2022-10-19T18:26:56.298Z,57.93
2022-10-19T18:29:28.750Z,56.66
2022-10-19T18:31:59.326Z,60.77
2022-10-19T18:34:30.252Z,60.77
2022-10-19T18:37:03.406Z,59.60
2022-10-19T18:39:33.973Z,59.47
2022-10-19T18:42:04.912Z,59.26
2022-10-19T18:44:35.494Z,59.34
2022-10-19T18:47:06.308Z,59.61
2022-10-19T18:49:37.269Z,60.04
2022-10-19T18:52:10.453Z,60.63
2022-10-19T18:54:41.195Z,61.53
2022-10-19T18:57:11.844Z,62.18
2022-10-19T18:59:42.482Z,62.63
2022-10-19T19:02:22.366Z,61.74
2022-10-19T19:04:58.986Z,62.21
2022-10-19T19:07:32.232Z,62.45
2022-10-19T19:10:03.007Z,62.75
2022-10-19T19:12:34.425Z,63.00
2022-10-19T19:15:08.319Z,62.68
2022-10-19T19:17:39.234Z,62.76
2022-10-19T19:20:11.061Z,63.23
2022-10-19T19:22:44.269Z,63.58
2022-10-19T19:25:15.077Z,63.88
2022-10-19T19:27:45.812Z,64.52
2022-10-19T19:30:16.701Z,65.11
2022-10-19T19:32:47.400Z,65.31
2022-10-19T19:35:18.694Z,64.21
2022-10-19T19:37:51.969Z,63.54
2022-10-19T19:40:22.530Z,62.70
2022-10-19T19:42:53.100Z,62.31
2022-10-19T19:45:23.652Z,61.77
2022-10-19T19:47:57.189Z,61.63
2022-10-19T19:50:27.782Z,60.97
2022-10-19T19:53:02.152Z,60.49
2022-10-19T19:55:38.859Z,59.94
2022-10-19T19:58:09.917Z,60.22
2022-10-19T20:00:42.555Z,60.02
2022-10-19T20:03:13.884Z,60.43
2022-10-19T20:05:44.453Z,59.93
2022-10-19T20:08:17.627Z,65.27
2022-10-19T20:10:48.156Z,62.17
2022-10-19T20:13:18.722Z,61.14
2022-10-19T20:15:49.270Z,62.61
2022-10-19T20:18:19.831Z,66.23
2022-10-19T20:20:50.326Z,64.56
2022-10-19T20:23:23.417Z,64.08
2022-10-19T20:25:53.941Z,63.73
2022-10-19T20:28:24.490Z,65.39
2022-10-19T20:31:02.980Z,65.59
2022-10-19T20:33:34.741Z,64.80
2022-10-19T20:36:07.105Z,65.29
2022-10-19T20:38:42.072Z,67.45
2022-10-19T20:41:13.169Z,68.09
2022-10-19T20:43:43.655Z,68.07
2022-10-19T20:46:16.176Z,68.11
2022-10-19T20:48:47.237Z,68.42
2022-10-19T20:51:20.056Z,69.31
2022-10-19T20:53:54.344Z,68.38
2022-10-19T20:56:27.725Z,67.94
2022-10-19T20:58:59.310Z,68.50
2022-10-19T21:01:32.060Z,68.34
2022-10-19T21:04:05.223Z,66.17
2022-10-19T21:06:38.269Z,67.70
2022-10-19T21:09:15.872Z,73.09
2022-10-19T21:11:50.407Z,69.30
2022-10-19T21:14:27.140Z,66.98
2022-10-19T21:17:01.455Z,67.89
2022-10-19T21:19:35.445Z,70.04
2022-10-19T21:22:06.536Z,67.90
2022-10-19T21:24:40.098Z,66.52
2022-10-19T21:27:12.459Z,67.51
2022-10-19T21:29:43.171Z,71.68
2022-10-19T21:32:13.709Z,68.54
2022-10-19T21:34:44.327Z,66.54
2022-10-19T21:37:15.078Z,67.92
2022-10-19T21:39:48.228Z,69.01
2022-10-19T21:42:18.748Z,67.96
2022-10-19T21:44:51.387Z,71.79
2022-10-19T21:47:24.520Z,69.36
2022-10-19T21:49:55.188Z,67.33
2022-10-19T21:52:25.801Z,67.05
2022-10-19T21:54:59.588Z,71.59
2022-10-19T21:57:30.296Z,69.90
2022-10-19T22:00:00.846Z,67.93
2022-10-19T22:02:31.437Z,68.01
2022-10-19T22:05:02.000Z,69.72
2022-10-19T22:07:33.356Z,71.78
2022-10-19T22:10:07.339Z,69.99
2022-10-19T22:12:38.397Z,68.83
2022-10-19T22:15:10.232Z,70.41
2022-10-19T22:17:40.808Z,72.64
2022-10-19T22:20:12.550Z,70.32
2022-10-19T22:22:43.055Z,69.02
2022-10-19T22:25:16.251Z,72.74
2022-10-19T22:27:46.731Z,71.83
2022-10-19T22:30:17.356Z,69.16
2022-10-19T22:32:47.920Z,70.09
2022-10-19T22:35:18.653Z,75.96
2022-10-19T22:37:49.179Z,73.26
2022-10-19T22:40:22.371Z,70.72
2022-10-19T22:42:52.865Z,70.84
2022-10-19T22:45:23.375Z,76.71
2022-10-19T22:47:53.878Z,73.74
2022-10-19T22:50:24.430Z,71.37
2022-10-19T22:52:54.925Z,71.26
2022-10-19T22:55:28.207Z,77.63
2022-10-19T22:57:58.752Z,75.34
2022-10-19T23:00:29.571Z,72.31
2022-10-19T23:03:00.141Z,74.41
2022-10-19T23:05:30.696Z,78.63
2022-10-19T23:08:01.261Z,79.04
2022-10-19T23:10:34.407Z,75.95
2022-10-19T23:13:04.879Z,75.84
2022-10-19T23:15:35.407Z,80.64
2022-10-19T23:18:05.970Z,79.10
2022-10-19T23:20:36.513Z,81.24
2022-10-19T23:23:07.096Z,77.80
2022-10-19T23:25:40.198Z,73.93
2022-10-19T23:28:10.695Z,78.08
2022-10-19T23:30:41.205Z,77.09
2022-10-19T23:33:11.750Z,76.29
2022-10-19T23:35:42.212Z,77.29
2022-10-19T23:38:12.669Z,83.43
2022-10-19T23:40:46.079Z,81.26
2022-10-19T23:43:16.590Z,76.95
2022-10-19T23:45:48.685Z,84.19
2022-10-19T23:48:19.171Z,79.54
2022-10-19T23:50:49.659Z,75.63
2022-10-19T23:53:20.154Z,82.47
2022-10-19T23:55:53.341Z,78.91
2022-10-19T23:58:23.834Z,74.78
